Terminal Aerodrome Forecast
Issued by NWS

Home | Current Version | Previous Version | Text Only | Print | Product List | Glossary On
Versions: 1 2 3 4 5 6 7 8 9 10 11 12 13 14 15
000
FTUS46 KOTX 190520
TAFMWH
TAF
KMWH 190520Z 1906/2006 36014KT P6SM SCT040 OVC070
     FM191200 35016G24KT P6SM SKC
     FM191800 01012KT P6SM SKC=

USA.gov is the U.S. government's official web portal to all federal, state and local government web resources and services.